Time;durP1;ratioP1;P1;durP2;ratioP2;P2;SDS_P1;SDS_P2;PMS_P1;PMS_P2;Temp;Humidity;BMP_temperature;BMP_pressure;BME280_temperature;BME280_humidity;BME280_pressure;Samples;Min_cycle;Max_cycle;Signal;HPM_P1;HPM_P2
2023/09/10 00:01:02;;;;;;;18.07;7.13;;;16.20;99.90;;;;;;5072229;28;20651;-71
2023/09/10 00:03:28;;;;;;;13.53;7.23;;;16.10;99.90;;;;;;5072155;28;20167;-73
2023/09/10 00:05:53;;;;;;;16.73;7.43;;;16.20;99.90;;;;;;5072014;28;20190;-72
2023/09/10 00:08:19;;;;;;;16.63;6.50;;;16.10;99.90;;;;;;5071363;28;20217;-72
2023/09/10 00:10:45;;;;;;;17.70;7.43;;;16.10;99.90;;;;;;5071716;28;20175;-72
2023/09/10 00:13:11;;;;;;;13.87;7.30;;;16.10;99.90;;;;;;5071830;28;20181;-72
2023/09/10 00:15:37;;;;;;;18.57;7.30;;;16.10;99.90;;;;;;5071918;28;20206;-71
2023/09/10 00:18:02;;;;;;;21.60;7.93;;;16.00;99.90;;;;;;5070972;28;20584;-71
2023/09/10 00:20:28;;;;;;;24.57;7.97;;;16.00;99.90;;;;;;5071490;28;20510;-72
2023/09/10 00:22:55;;;;;;;14.93;7.37;;;16.00;99.90;;;;;;5071667;28;20259;-71
2023/09/10 00:25:21;;;;;;;21.80;8.33;;;16.00;99.90;;;;;;5071615;28;20194;-71
2023/09/10 00:27:46;;;;;;;19.07;8.27;;;16.00;99.90;;;;;;5071006;28;20258;-72
2023/09/10 00:30:12;;;;;;;17.40;7.83;;;15.90;99.90;;;;;;5071518;28;20280;-71
2023/09/10 00:32:38;;;;;;;18.40;8.67;;;15.90;99.90;;;;;;5071636;28;20543;-71
2023/09/10 00:35:04;;;;;;;18.47;7.43;;;15.90;99.90;;;;;;5071528;28;20259;-71
2023/09/10 00:37:29;;;;;;;18.17;7.77;;;15.80;99.90;;;;;;5069486;28;20236;-72
2023/09/10 00:39:55;;;;;;;15.60;7.53;;;15.70;99.90;;;;;;5070075;28;20214;-72
2023/09/10 00:42:22;;;;;;;14.87;7.33;;;15.70;99.90;;;;;;5071396;28;20549;-71
2023/09/10 00:44:48;;;;;;;17.67;7.37;;;15.70;99.90;;;;;;5071357;28;20190;-72
2023/09/10 00:47:14;;;;;;;16.30;7.40;;;15.70;99.90;;;;;;5070685;28;20202;-71
2023/09/10 00:49:40;;;;;;;16.13;7.37;;;15.60;99.90;;;;;;5071164;28;20546;-71
2023/09/10 00:52:07;;;;;;;18.07;7.37;;;15.60;99.90;;;;;;5071229;28;20636;-71
2023/09/10 00:54:34;;;;;;;17.80;7.40;;;15.60;99.90;;;;;;5071127;28;20229;-72
2023/09/10 00:57:03;;;;;;;14.93;7.60;;;15.60;99.90;;;;;;5070541;28;20202;-71
2023/09/10 00:59:29;;;;;;;16.43;7.23;;;15.60;99.90;;;;;;5070924;28;20284;-72
2023/09/10 01:01:55;;;;;;;15.30;8.00;;;15.60;99.90;;;;;;5071061;28;20178;-72
2023/09/10 01:04:22;;;;;;;13.43;7.23;;;15.50;99.90;;;;;;5070860;28;20186;-71
2023/09/10 01:06:49;;;;;;;14.83;7.53;;;15.50;99.90;;;;;;5070499;28;20517;-72
2023/09/10 01:09:15;;;;;;;13.37;7.63;;;15.50;99.90;;;;;;5070786;28;20190;-71
2023/09/10 01:11:46;;;;;;;17.63;7.87;;;15.50;99.90;;;;;;5071000;28;20190;-71
2023/09/10 01:14:23;;;;;;;16.50;7.27;;;15.40;99.90;;;;;;5070677;28;20202;-72
2023/09/10 01:17:02;;;;;;;15.03;7.77;;;15.30;99.90;;;;;;5068933;28;20289;-72
2023/09/10 01:19:52;;;;;;;13.80;7.30;;;15.30;99.90;;;;;;5070758;28;20209;-72
2023/09/10 01:22:32;;;;;;;12.87;7.10;;;15.30;99.90;;;;;;5070284;28;20599;-71
2023/09/10 01:25:00;;;;;;;15.03;7.73;;;15.20;99.90;;;;;;5070679;28;20194;-71
2023/09/10 01:27:25;;;;;;;17.27;7.30;;;15.20;99.90;;;;;;5070185;28;20174;-71
2023/09/10 01:29:51;;;;;;;13.87;7.23;;;15.20;99.90;;;;;;5070649;28;20208;-72
2023/09/10 01:32:25;;;;;;;14.57;7.57;;;15.20;99.90;;;;;;5070699;28;20227;-71
2023/09/10 01:35:00;;;;;;;20.37;7.23;;;15.10;99.90;;;;;;5070701;28;20284;-71
2023/09/10 01:37:29;;;;;;;13.70;7.17;;;15.10;99.90;;;;;;5070011;28;20273;-71
2023/09/10 01:39:58;;;;;;;14.77;6.97;;;15.20;99.90;;;;;;5070546;28;20198;-71
2023/09/10 01:42:24;;;;;;;14.90;7.40;;;15.20;99.90;;;;;;5069113;28;20175;-71
2023/09/10 01:44:51;;;;;;;14.17;7.37;;;15.10;99.90;;;;;;5070373;28;20186;-71
2023/09/10 01:47:17;;;;;;;15.53;6.90;;;15.10;99.90;;;;;;5069811;28;20196;-71
2023/09/10 01:49:42;;;;;;;14.50;6.50;;;15.00;99.90;;;;;;5070497;28;20178;-71
2023/09/10 01:52:08;;;;;;;17.20;7.50;;;15.00;99.90;;;;;;5068912;28;20178;-71
2023/09/10 01:54:34;;;;;;;15.73;6.70;;;14.90;99.90;;;;;;5070426;28;20174;-71
2023/09/10 01:57:00;;;;;;;17.77;7.00;;;14.90;99.90;;;;;;5069951;28;20191;-71
2023/09/10 01:59:25;;;;;;;15.50;6.90;;;14.90;99.90;;;;;;5070210;28;20252;-71
2023/09/10 02:01:51;;;;;;;14.23;7.23;;;14.90;99.90;;;;;;5070423;28;20273;-71
2023/09/10 02:04:16;;;;;;;13.43;6.67;;;14.80;99.90;;;;;;5070364;28;20191;-71
2023/09/10 02:06:42;;;;;;;15.97;7.47;;;14.70;99.90;;;;;;5069840;28;20198;-71
2023/09/10 02:09:07;;;;;;;17.80;7.93;;;14.80;99.90;;;;;;5070176;28;20183;-70
2023/09/10 02:11:33;;;;;;;17.67;7.00;;;14.70;99.90;;;;;;5070394;28;20179;-71
2023/09/10 02:13:58;;;;;;;14.03;6.77;;;14.70;99.90;;;;;;5070214;28;20257;-71
2023/09/10 02:16:24;;;;;;;15.23;7.73;;;14.70;99.90;;;;;;5070108;28;20267;-71
2023/09/10 02:18:49;;;;;;;13.33;7.03;;;14.70;99.90;;;;;;5069481;28;20253;-71
2023/09/10 02:21:15;;;;;;;17.97;7.13;;;14.70;99.90;;;;;;5068999;28;20206;-71
2023/09/10 02:23:44;;;;;;;17.53;7.20;;;14.70;99.90;;;;;;5070262;28;20181;-71
2023/09/10 02:26:10;;;;;;;17.93;7.03;;;14.70;99.90;;;;;;5070166;28;20191;-71
2023/09/10 02:28:35;;;;;;;14.37;7.53;;;14.70;99.90;;;;;;5069390;28;20589;-71
2023/09/10 02:31:07;;;;;;;11.03;6.60;;;14.70;99.90;;;;;;5069993;28;20178;-71
2023/09/10 02:33:34;;;;;;;12.30;6.37;;;14.60;99.90;;;;;;5073025;28;20174;-71
2023/09/10 02:36:00;;;;;;;13.60;6.97;;;14.60;99.90;;;;;;5073870;28;20196;-71
2023/09/10 02:38:27;;;;;;;19.37;8.73;;;14.60;99.90;;;;;;5072981;28;20202;-71
2023/09/10 02:40:54;;;;;;;12.90;7.27;;;14.60;99.90;;;;;;5073763;28;20647;-71
2023/09/10 02:43:19;;;;;;;16.93;7.17;;;14.60;99.90;;;;;;5073542;28;20170;-71
2023/09/10 02:45:45;;;;;;;12.73;7.67;;;14.60;99.90;;;;;;5073581;28;20220;-71
2023/09/10 02:48:10;;;;;;;13.03;6.73;;;14.60;99.90;;;;;;5072884;28;20178;-70
2023/09/10 02:50:36;;;;;;;13.70;7.13;;;14.60;99.90;;;;;;5073613;28;20217;-70
2023/09/10 02:53:01;;;;;;;15.23;6.67;;;14.60;99.90;;;;;;5073617;28;20178;-71
2023/09/10 02:55:27;;;;;;;19.90;7.57;;;14.50;99.90;;;;;;5073422;28;20195;-71
2023/09/10 02:57:52;;;;;;;14.43;6.70;;;14.50;99.90;;;;;;5072796;28;20639;-72
2023/09/10 03:00:22;;;;;;;16.00;6.97;;;14.50;99.90;;;;;;5073125;28;20264;-71
2023/09/10 03:02:57;;;;;;;14.60;6.47;;;14.40;99.90;;;;;;5073342;28;20810;-71
2023/09/10 03:05:23;;;;;;;18.17;7.10;;;14.40;99.90;;;;;;5073317;28;20273;-71
2023/09/10 03:07:52;;;;;;;13.90;6.93;;;14.40;99.90;;;;;;5071023;28;20224;-71
2023/09/10 03:10:18;;;;;;;16.90;6.53;;;14.30;99.90;;;;;;5073159;28;20611;-71
2023/09/10 03:12:44;;;;;;;12.20;7.30;;;14.30;99.90;;;;;;5071893;28;20224;-71
2023/09/10 03:15:10;;;;;;;13.03;7.10;;;14.30;99.90;;;;;;5072949;28;20656;-71
2023/09/10 03:17:35;;;;;;;10.57;6.70;;;14.30;99.90;;;;;;5071281;28;20315;-70
2023/09/10 03:20:02;;;;;;;14.33;7.00;;;14.30;99.90;;;;;;5072901;28;20224;-71
2023/09/10 03:22:28;;;;;;;15.10;6.97;;;14.30;99.90;;;;;;5072975;28;20296;-71
2023/09/10 03:24:53;;;;;;;15.27;6.63;;;14.20;99.90;;;;;;5073009;28;20391;-71
2023/09/10 03:27:19;;;;;;;17.73;6.63;;;14.20;99.90;;;;;;5070886;28;20206;-71
2023/09/10 03:29:44;;;;;;;10.97;6.57;;;14.20;99.90;;;;;;5072657;28;20640;-71
2023/09/10 03:32:10;;;;;;;17.13;6.63;;;14.20;99.90;;;;;;5072930;28;20182;-71
2023/09/10 03:34:36;;;;;;;14.03;7.13;;;14.20;99.90;;;;;;5071495;28;20700;-71
2023/09/10 03:37:03;;;;;;;14.20;6.60;;;14.20;99.90;;;;;;5070718;28;20562;-71
2023/09/10 03:39:29;;;;;;;12.23;6.30;;;14.20;99.90;;;;;;5072628;28;20198;-71
2023/09/10 03:41:55;;;;;;;12.27;6.50;;;14.10;99.90;;;;;;5072593;28;20175;-71
2023/09/10 03:44:20;;;;;;;11.57;7.00;;;14.10;99.90;;;;;;5071768;28;20182;-71
2023/09/10 03:46:47;;;;;;;19.83;7.13;;;14.00;99.90;;;;;;5072073;28;20656;-71
2023/09/10 03:49:12;;;;;;;15.27;7.93;;;14.00;99.90;;;;;;5071171;28;20821;-70
2023/09/10 03:51:40;;;;;;;11.77;7.57;;;14.00;99.90;;;;;;5071165;28;20181;-70
2023/09/10 03:54:07;;;;;;;17.20;7.20;;;14.00;99.90;;;;;;5072460;28;20174;-71
2023/09/10 03:56:33;;;;;;;11.73;7.20;;;13.90;99.90;;;;;;5072348;28;20194;-71
2023/09/10 03:58:58;;;;;;;14.23;7.23;;;13.90;99.90;;;;;;5071493;28;20216;-71
2023/09/10 04:01:24;;;;;;;13.93;7.00;;;13.80;99.90;;;;;;5072248;28;20186;-71
2023/09/10 04:03:50;;;;;;;13.23;7.30;;;13.80;99.90;;;;;;5072327;28;20240;-72
2023/09/10 04:06:15;;;;;;;14.00;7.23;;;13.80;99.90;;;;;;5072145;28;20216;-71
2023/09/10 04:08:41;;;;;;;16.10;7.63;;;13.80;99.90;;;;;;5071507;28;20189;-71
2023/09/10 04:11:08;;;;;;;16.77;7.70;;;13.80;99.90;;;;;;5072089;28;20584;-71
2023/09/10 04:13:34;;;;;;;14.20;7.43;;;13.70;99.90;;;;;;5071784;28;20524;-71
2023/09/10 04:16:00;;;;;;;13.10;7.30;;;13.70;99.90;;;;;;5071740;28;20251;-71
2023/09/10 04:18:25;;;;;;;19.10;7.83;;;13.70;99.90;;;;;;5069572;28;20211;-71
2023/09/10 04:20:51;;;;;;;12.73;6.90;;;13.70;99.90;;;;;;5071918;28;20624;-71
2023/09/10 04:23:16;;;;;;;10.77;6.40;;;13.70;99.90;;;;;;5071819;28;20174;-71
2023/09/10 04:25:42;;;;;;;16.00;6.83;;;13.60;99.90;;;;;;5071750;28;20198;-71
2023/09/10 04:28:07;;;;;;;17.07;7.00;;;13.60;99.90;;;;;;5070961;28;20637;-71
2023/09/10 04:30:33;;;;;;;16.33;7.20;;;13.60;99.90;;;;;;5071562;28;20664;-71
2023/09/10 04:32:58;;;;;;;17.30;7.47;;;13.60;99.90;;;;;;5071653;28;20209;-70
2023/09/10 04:35:24;;;;;;;11.97;6.90;;;13.60;99.90;;;;;;5070473;28;20202;-71
2023/09/10 04:37:50;;;;;;;12.83;7.13;;;13.60;99.90;;;;;;5070871;28;20163;-71
2023/09/10 04:40:15;;;;;;;13.90;7.00;;;13.60;99.90;;;;;;5071184;28;20302;-70
2023/09/10 04:42:41;;;;;;;13.87;6.80;;;13.60;99.90;;;;;;5071370;28;20179;-71
2023/09/10 04:45:07;;;;;;;10.80;6.80;;;13.60;99.90;;;;;;5071256;28;20206;-70
2023/09/10 04:47:32;;;;;;;16.63;7.37;;;13.50;99.90;;;;;;5070633;28;20257;-70
2023/09/10 04:49:58;;;;;;;13.00;7.10;;;13.50;99.90;;;;;;5071368;28;20261;-70
2023/09/10 04:52:24;;;;;;;15.40;7.50;;;13.50;99.90;;;;;;5071220;28;20194;-70
2023/09/10 04:54:50;;;;;;;16.07;7.37;;;13.60;99.90;;;;;;5071124;28;20233;-70
2023/09/10 04:57:15;;;;;;;17.97;8.07;;;13.60;99.90;;;;;;5069668;28;20189;-71
2023/09/10 04:59:41;;;;;;;15.67;7.80;;;13.50;99.90;;;;;;5070962;28;20642;-71
2023/09/10 05:02:06;;;;;;;17.40;8.40;;;13.50;99.90;;;;;;5056267;28;20187;-70
2023/09/10 05:04:32;;;;;;;18.00;7.67;;;13.50;99.90;;;;;;5049442;28;20175;-71
2023/09/10 05:06:58;;;;;;;15.00;7.33;;;13.50;99.90;;;;;;5049223;28;20179;-71
2023/09/10 05:09:24;;;;;;;11.53;6.40;;;13.50;99.90;;;;;;5050411;28;20215;-71
2023/09/10 05:11:49;;;;;;;18.67;7.37;;;13.50;99.90;;;;;;5048782;28;20218;-71
2023/09/10 05:14:16;;;;;;;16.43;7.40;;;13.50;99.90;;;;;;5049771;28;20209;-71
2023/09/10 05:16:42;;;;;;;19.87;7.80;;;13.50;99.90;;;;;;5049441;28;20221;-71
2023/09/10 05:19:08;;;;;;;13.97;7.43;;;13.60;99.90;;;;;;5049684;28;20600;-70
2023/09/10 05:21:33;;;;;;;14.63;7.27;;;13.60;99.90;;;;;;5049826;28;20589;-72
2023/09/10 05:23:59;;;;;;;16.47;6.80;;;13.60;99.90;;;;;;5049802;28;20195;-71
2023/09/10 05:26:24;;;;;;;11.43;6.70;;;13.70;99.90;;;;;;5031924;28;20199;-71
2023/09/10 05:28:50;;;;;;;11.97;7.17;;;13.70;99.90;;;;;;5049531;28;20253;-71
2023/09/10 05:31:15;;;;;;;13.10;6.63;;;13.70;99.90;;;;;;5050035;28;20565;-71
2023/09/10 05:33:41;;;;;;;14.80;7.00;;;13.70;99.90;;;;;;5052302;28;20559;-71
2023/09/10 05:36:07;;;;;;;13.33;6.93;;;13.80;99.90;;;;;;5049756;28;20230;-71
2023/09/10 05:38:32;;;;;;;14.30;7.33;;;13.80;99.90;;;;;;5048866;28;20206;-71
2023/09/10 05:41:02;;;;;;;13.30;7.53;;;13.80;99.90;;;;;;5049713;28;20171;-71
2023/09/10 05:43:29;;;;;;;13.40;7.57;;;13.70;99.90;;;;;;5048486;28;20285;-71
2023/09/10 05:45:56;;;;;;;15.30;7.97;;;13.70;99.90;;;;;;5052185;28;20253;-70
2023/09/10 05:48:22;;;;;;;13.57;7.77;;;13.80;99.90;;;;;;5060855;28;20174;-70
2023/09/10 05:50:48;;;;;;;18.17;7.83;;;13.80;99.90;;;;;;5068264;28;20262;-70
2023/09/10 05:53:13;;;;;;;13.57;8.03;;;13.70;99.90;;;;;;5068438;28;20517;-70
2023/09/10 05:55:40;;;;;;;17.50;8.17;;;13.70;99.90;;;;;;5069415;28;20202;-70
2023/09/10 05:58:06;;;;;;;14.70;8.23;;;13.80;99.90;;;;;;5068938;28;20236;-71
2023/09/10 06:00:31;;;;;;;15.40;8.80;;;13.90;99.90;;;;;;5068077;28;20174;-71
2023/09/10 06:02:57;;;;;;;15.17;7.43;;;14.00;99.90;;;;;;5069556;28;20227;-71
2023/09/10 06:05:22;;;;;;;15.33;7.63;;;14.00;99.90;;;;;;5069575;28;20191;-76
2023/09/10 06:07:48;;;;;;;16.80;8.57;;;14.10;99.90;;;;;;5071216;28;20315;-73
2023/09/10 06:10:13;;;;;;;16.33;7.67;;;14.30;99.90;;;;;;5073500;28;20174;-72
2023/09/10 06:12:39;;;;;;;13.87;7.90;;;14.40;99.90;;;;;;5073327;28;20174;-72
2023/09/10 06:15:06;;;;;;;19.87;7.77;;;14.60;99.90;;;;;;5073391;28;20186;-72
2023/09/10 06:17:32;;;;;;;19.97;8.27;;;14.70;99.90;;;;;;5072667;28;20252;-72
2023/09/10 06:19:58;;;;;;;17.33;7.70;;;14.70;99.90;;;;;;5072920;28;20659;-71
2023/09/10 06:22:23;;;;;;;18.93;8.63;;;14.80;99.90;;;;;;5073334;28;20189;-72
2023/09/10 06:24:49;;;;;;;15.57;8.10;;;14.80;99.90;;;;;;5071688;28;20202;-72
2023/09/10 06:27:14;;;;;;;21.07;7.93;;;14.90;99.90;;;;;;5072630;28;20213;-72
2023/09/10 06:29:40;;;;;;;16.90;8.50;;;15.10;99.90;;;;;;5073036;28;20179;-73
2023/09/10 06:32:06;;;;;;;20.53;8.20;;;15.20;99.90;;;;;;5073073;28;20228;-73
2023/09/10 06:34:31;;;;;;;13.57;7.93;;;15.30;99.90;;;;;;5072878;28;20686;-71
2023/09/10 06:36:58;;;;;;;17.93;7.50;;;15.50;99.90;;;;;;5072536;28;20690;-71
2023/09/10 06:39:23;;;;;;;19.07;7.63;;;15.80;99.90;;;;;;5072739;28;20232;-72
2023/09/10 06:41:49;;;;;;;18.67;9.07;;;16.20;99.90;;;;;;5072863;28;20198;-71
2023/09/10 06:44:15;;;;;;;18.47;8.17;;;16.60;99.90;;;;;;5072798;28;20192;-71
2023/09/10 06:46:40;;;;;;;23.33;10.10;;;16.90;99.90;;;;;;5072570;28;20237;-72
2023/09/10 06:49:06;;;;;;;13.57;6.50;;;17.20;99.90;;;;;;5069143;28;20219;-71
2023/09/10 06:51:32;;;;;;;18.03;6.50;;;17.50;99.90;;;;;;5062374;28;20221;-72
2023/09/10 06:53:58;;;;;;;16.77;7.07;;;17.70;99.90;;;;;;5055513;28;20588;-72
2023/09/10 06:56:25;;;;;;;11.20;5.97;;;17.80;99.90;;;;;;5052944;28;20203;-72
2023/09/10 06:58:50;;;;;;;14.73;7.47;;;18.00;99.90;;;;;;5051956;28;20249;-71
2023/09/10 07:01:18;;;;;;;11.20;6.43;;;18.40;99.90;;;;;;5052645;28;20179;-71
2023/09/10 07:03:45;;;;;;;10.47;6.20;;;18.60;99.90;;;;;;5051276;28;20220;-74
2023/09/10 07:06:11;;;;;;;16.17;7.07;;;18.70;99.90;;;;;;5052350;28;20273;-73
2023/09/10 07:08:37;;;;;;;11.90;5.93;;;18.70;99.90;;;;;;5051950;28;20320;-72
2023/09/10 07:11:03;;;;;;;14.67;6.47;;;18.70;99.90;;;;;;5052319;28;20618;-73
2023/09/10 07:13:30;;;;;;;13.87;5.87;;;18.90;99.90;;;;;;5052418;28;20179;-73
2023/09/10 07:15:55;;;;;;;14.57;6.17;;;19.20;99.90;;;;;;5052073;28;20191;-73
2023/09/10 07:18:21;;;;;;;13.07;6.00;;;19.40;99.90;;;;;;5051236;28;20674;-74
2023/09/10 07:20:46;;;;;;;12.10;6.10;;;19.40;99.90;;;;;;5052092;28;20620;-74
2023/09/10 07:23:12;;;;;;;12.00;6.10;;;19.40;99.90;;;;;;5052152;28;20584;-74
2023/09/10 07:25:41;;;;;;;14.50;6.30;;;19.60;99.90;;;;;;5051868;28;20604;-74
2023/09/10 07:28:07;;;;;;;12.07;6.30;;;19.70;99.90;;;;;;5055820;28;20176;-73
2023/09/10 07:30:32;;;;;;;12.63;6.50;;;19.90;99.90;;;;;;5053884;28;20266;-75
2023/09/10 07:32:58;;;;;;;18.67;6.17;;;20.00;99.90;;;;;;5051847;28;20214;-70
2023/09/10 07:35:23;;;;;;;13.27;5.83;;;20.20;99.90;;;;;;5051259;28;20230;-71
2023/09/10 07:37:51;;;;;;;13.57;5.10;;;20.50;99.90;;;;;;5050293;28;20172;-73
2023/09/10 07:40:17;;;;;;;14.20;5.97;;;21.10;99.90;;;;;;5051650;28;20195;-72
2023/09/10 07:42:42;;;;;;;13.27;5.47;;;21.60;99.90;;;;;;5051563;28;20217;-72
2023/09/10 07:45:14;;;;;;;11.37;6.20;;;22.10;99.90;;;;;;5050507;28;20192;-72
2023/09/10 07:47:40;;;;;;;15.77;6.07;;;22.20;99.90;;;;;;5051324;28;20686;-72
2023/09/10 07:50:06;;;;;;;12.70;5.73;;;22.20;99.90;;;;;;5051414;28;20596;-72
2023/09/10 07:52:32;;;;;;;15.20;5.93;;;22.40;99.90;;;;;;5052080;28;20212;-72
2023/09/10 07:54:57;;;;;;;15.00;5.93;;;22.90;99.90;;;;;;5051521;28;20651;-72
2023/09/10 07:57:24;;;;;;;14.23;5.77;;;23.50;99.90;;;;;;5051124;28;20656;-72
2023/09/10 07:59:50;;;;;;;17.57;6.23;;;23.60;99.90;;;;;;5051323;28;20233;-73
2023/09/10 08:02:16;;;;;;;14.30;5.73;;;23.70;99.90;;;;;;5051467;28;20206;-73
2023/09/10 08:04:43;;;;;;;13.67;6.00;;;24.50;99.90;;;;;;5051200;28;20210;-73
2023/09/10 08:07:10;;;;;;;12.50;5.40;;;25.20;99.90;;;;;;5050776;28;20179;-73
2023/09/10 08:09:37;;;;;;;14.00;5.40;;;25.70;99.90;;;;;;5051555;28;20175;-73
2023/09/10 08:12:03;;;;;;;17.43;5.20;;;26.20;99.90;;;;;;5051617;28;20179;-73
2023/09/10 08:14:28;;;;;;;13.63;5.73;;;26.60;99.90;;;;;;5050984;28;20175;-73
2023/09/10 08:16:54;;;;;;;15.33;5.67;;;26.80;99.90;;;;;;5050684;28;20196;-73
2023/09/10 08:19:19;;;;;;;15.37;5.17;;;27.20;99.90;;;;;;5050926;28;20218;-73
2023/09/10 08:21:46;;;;;;;14.50;5.50;;;27.60;99.90;;;;;;5051031;28;20184;-74
2023/09/10 08:24:11;;;;;;;16.57;5.33;;;27.90;99.90;;;;;;5051072;28;20277;-74
2023/09/10 08:26:37;;;;;;;10.17;5.47;;;28.50;99.90;;;;;;5050853;28;20199;-74
2023/09/10 08:29:02;;;;;;;11.83;5.10;;;28.80;99.90;;;;;;5050190;28;20183;-75
2023/09/10 08:31:28;;;;;;;13.07;4.57;;;29.40;99.90;;;;;;5050705;28;20183;-75
2023/09/10 08:33:54;;;;;;;13.97;5.47;;;29.40;99.90;;;;;;5050848;28;20184;-74
2023/09/10 08:36:19;;;;;;;10.17;5.47;;;29.20;99.90;;;;;;5050894;28;20219;-74
2023/09/10 08:38:45;;;;;;;12.48;4.75;;;29.60;99.90;;;;;;5056939;28;20664;-75
2023/09/10 08:41:28;;;;;;;11.90;5.07;;;30.00;99.90;;;;;;5050799;28;20555;-76
2023/09/10 08:43:56;;;;;;;14.75;5.60;;;29.90;99.90;;;;;;5051424;28;20243;-76
2023/09/10 08:46:29;;;;;;;15.70;5.15;;;30.10;99.90;;;;;;5067673;28;20285;-76
2023/09/10 08:48:56;;;;;;;13.15;5.50;;;30.50;99.90;;;;;;5069954;28;20177;-75
2023/09/10 08:51:22;;;;;;;14.50;5.35;;;30.80;99.90;;;;;;5070695;28;20191;-76
2023/09/10 08:53:48;;;;;;;20.27;4.72;;;31.20;99.90;;;;;;5061602;28;20511;-75
2023/09/10 08:56:14;;;;;;;18.90;5.22;;;31.30;99.90;;;;;;5064599;28;20575;-75
2023/09/10 08:58:42;;;;;;;18.92;5.45;;;31.40;99.90;;;;;;5066720;28;20246;-76
2023/09/10 09:01:12;;;;;;;19.08;7.22;;;31.60;99.90;;;;;;5058605;28;20172;-77
2023/09/10 09:03:37;;;;;;;14.52;5.43;;;31.80;99.90;;;;;;5060337;28;20170;-76
2023/09/10 09:06:04;;;;;;;13.65;5.13;;;31.80;99.90;;;;;;5059011;28;20255;-75
2023/09/10 09:08:35;;;;;;;12.85;5.22;;;31.80;99.90;;;;;;5063346;28;20178;-76
2023/09/10 09:11:03;;;;;;;13.02;5.25;;;31.90;99.90;;;;;;5065084;28;20261;-75
2023/09/10 09:13:33;;;;;;;15.05;4.90;;;32.30;99.90;;;;;;5060668;28;20178;-76
2023/09/10 09:16:01;;;;;;;9.45;4.90;;;32.60;99.90;;;;;;5042103;28;20187;-75
2023/09/10 09:18:28;;;;;;;12.70;4.95;;;32.90;99.90;;;;;;5058037;28;20241;-75
2023/09/10 09:21:00;;;;;;;15.13;5.22;;;33.00;99.90;;;;;;5060401;28;20530;-76
2023/09/10 09:23:32;;;;;;;13.30;5.30;;;33.00;99.90;;;;;;5047627;28;20181;-72
2023/09/10 09:25:58;;;;;;;15.15;5.25;;;33.10;99.90;;;;;;5060423;28;20202;-75
2023/09/10 09:28:26;;;;;;;20.50;5.07;;;32.90;99.90;;;;;;5063737;28;20182;-75
2023/09/10 09:30:53;;;;;;;18.23;5.22;;;33.00;99.90;;;;;;5068679;28;20228;-75
2023/09/10 09:33:18;;;;;;;13.45;4.95;;;33.20;99.90;;;;;;5071599;28;20190;-76
2023/09/10 09:35:46;;;;;;;13.80;4.90;;;33.50;99.90;;;;;;5075374;28;20758;-76
2023/09/10 09:38:15;;;;;;;14.38;4.65;;;33.70;99.90;;;;;;5066463;28;20721;-75
2023/09/10 09:40:42;;;;;;;19.55;5.40;;;34.00;99.90;;;;;;5070195;28;20174;-76
2023/09/10 09:43:08;;;;;;;25.15;4.85;;;34.10;99.90;;;;;;5076166;28;20253;-75
2023/09/10 09:45:35;;;;;;;17.05;4.70;;;34.10;99.90;;;;;;5089228;28;20194;-75
2023/09/10 09:48:03;;;;;;;15.63;4.40;;;34.20;99.90;;;;;;5087417;28;20210;-75
2023/09/10 09:50:29;;;;;;;26.58;4.80;;;34.40;99.90;;;;;;5056177;28;20229;-74
2023/09/10 09:52:55;;;;;;;28.02;4.82;;;34.70;99.90;;;;;;5068777;28;20214;-73
2023/09/10 09:55:21;;;;;;;19.20;4.43;;;34.80;99.90;;;;;;5067326;28;20757;-74
2023/09/10 09:57:47;;;;;;;22.85;4.57;;;35.10;99.90;;;;;;5068738;28;20194;-74
2023/09/10 10:00:13;;;;;;;25.77;4.70;;;35.40;99.90;;;;;;5068677;28;20211;-73
2023/09/10 10:02:39;;;;;;;22.08;4.43;;;35.50;99.90;;;;;;5068803;28;20194;-74
2023/09/10 10:05:07;;;;;;;22.50;4.63;;;35.80;99.90;;;;;;5069003;28;20282;-74
2023/09/10 10:07:35;;;;;;;17.77;4.13;;;35.50;99.90;;;;;;5068698;28;20655;-74
2023/09/10 10:10:01;;;;;;;21.13;4.30;;;35.70;99.90;;;;;;5068621;28;20186;-73
2023/09/10 10:12:27;;;;;;;21.73;3.97;;;36.00;99.90;;;;;;5069097;28;20678;-74
2023/09/10 10:14:54;;;;;;;19.90;5.00;;;36.10;99.90;;;;;;5068573;28;20191;-74
2023/09/10 10:17:22;;;;;;;29.17;5.88;;;36.10;99.90;;;;;;5068600;28;20746;-74
2023/09/10 10:19:50;;;;;;;42.10;5.95;;;36.30;99.90;;;;;;5068312;28;20613;-74
2023/09/10 10:22:16;;;;;;;36.53;5.10;;;36.40;99.90;;;;;;5068833;28;20261;-75
2023/09/10 10:24:42;;;;;;;33.30;5.82;;;36.40;99.90;;;;;;5068485;28;20178;-74
2023/09/10 10:27:08;;;;;;;29.05;4.97;;;36.60;99.90;;;;;;5068216;28;20774;-74
2023/09/10 10:29:34;;;;;;;24.08;4.72;;;36.70;99.90;;;;;;5068465;28;20196;-74
2023/09/10 10:32:16;;;;;;;30.67;5.25;;;36.90;99.90;;;;;;5068954;28;20183;-73
2023/09/10 10:34:52;;;;;;;40.38;5.82;;;36.80;99.90;;;;;;5068466;28;20186;-74
2023/09/10 10:37:38;;;;;;;22.00;5.28;;;36.50;99.70;;;;;;5068388;28;20181;-74
2023/09/10 10:40:11;;;;;;;34.28;4.82;;;35.70;99.90;;;;;;5068144;28;20277;-74
2023/09/10 10:42:40;;;;;;;30.58;5.18;;;35.70;99.90;;;;;;5068935;28;20189;-75
2023/09/10 10:45:07;;;;;;;29.08;4.85;;;35.70;99.90;;;;;;5068604;28;20205;-74
2023/09/10 10:47:40;;;;;;;22.45;4.22;;;36.00;99.90;;;;;;5068345;28;20186;-74
2023/09/10 10:50:09;;;;;;;32.72;4.75;;;36.10;99.90;;;;;;5067485;28;20194;-74
2023/09/10 10:52:42;;;;;;;26.05;5.00;;;36.10;99.90;;;;;;5068760;28;20257;-74
2023/09/10 10:55:08;;;;;;;31.55;5.07;;;36.30;99.90;;;;;;5070720;28;20212;-75
2023/09/10 10:57:34;;;;;;;24.08;5.10;;;36.20;99.20;;;;;;5071259;28;20284;-74
2023/09/10 11:00:03;;;;;;;28.05;4.72;;;36.40;98.90;;;;;;5071835;28;20215;-74
2023/09/10 11:02:28;;;;;;;34.30;5.15;;;35.90;99.20;;;;;;5068495;28;20188;-74
2023/09/10 11:05:12;;;;;;;26.52;5.50;;;35.30;99.80;;;;;;5071987;28;20225;-76
2023/09/10 11:07:37;;;;;;;30.25;4.78;;;35.10;99.90;;;;;;5071576;28;20289;-76
2023/09/10 11:10:38;;;;;;;30.00;5.07;;;34.90;99.40;;;;;;5071898;28;20277;-74
2023/09/10 11:13:09;;;;;;;26.95;5.00;;;34.70;98.80;;;;;;5072135;28;20603;-74
2023/09/10 11:15:35;;;;;;;34.88;4.25;;;34.10;99.90;;;;;;5071739;28;20353;-76
2023/09/10 11:18:36;;;;;;;28.92;4.70;;;33.80;99.90;;;;;;5072367;28;20718;-79
2023/09/10 11:21:10;;;;;;;27.50;4.85;;;34.00;99.90;;;;;;5091813;28;20536;-74
2023/09/10 11:24:08;;;;;;;24.50;4.70;;;34.10;99.90;;;;;;5092799;28;20554;-73
2023/09/10 11:26:33;;;;;;;28.27;4.70;;;34.40;99.90;;;;;;5078299;28;20220;-75
2023/09/10 11:29:04;;;;;;;24.98;4.18;;;34.70;99.90;;;;;;5064457;28;20185;-75
2023/09/10 11:34:22;;;;;;;21.73;5.07;;;34.70;99.90;;;;;;5066179;28;20197;-74
2023/09/10 11:37:09;;;;;;;31.02;5.15;;;34.80;99.90;;;;;;5072059;28;20191;-78
2023/09/10 11:39:36;;;;;;;32.90;5.25;;;34.70;99.90;;;;;;5091356;28;20193;-75
2023/09/10 11:42:04;;;;;;;27.08;5.18;;;34.70;99.90;;;;;;5091766;28;20210;-76
2023/09/10 11:44:30;;;;;;;40.20;8.23;;;34.70;99.90;;;;;;5071601;28;20286;-74
2023/09/10 11:46:55;;;;;;;32.08;5.65;;;34.60;99.10;;;;;;5083510;28;20707;-74
2023/09/10 11:49:23;;;;;;;20.80;4.85;;;34.50;99.50;;;;;;5090869;28;20268;-75
2023/09/10 11:51:51;;;;;;;36.30;5.15;;;34.70;99.70;;;;;;5081520;28;20186;-72
2023/09/10 11:54:17;;;;;;;22.95;5.43;;;35.10;99.60;;;;;;5084556;28;20187;-74
2023/09/10 11:57:01;;;;;;;21.27;4.68;;;35.20;98.90;;;;;;5067135;28;20719;-75
2023/09/10 11:59:31;;;;;;;35.53;4.85;;;35.30;98.40;;;;;;5058906;28;20211;-73
2023/09/10 12:01:57;;;;;;;28.92;6.07;;;35.30;98.60;;;;;;5072815;28;20780;-73
2023/09/10 12:04:31;;;;;;;24.40;5.60;;;35.20;98.10;;;;;;5073216;28;20210;-72
2023/09/10 12:06:57;;;;;;;20.20;4.68;;;35.40;98.10;;;;;;5067532;28;20217;-73
2023/09/10 12:09:23;;;;;;;21.95;4.93;;;35.40;98.50;;;;;;5066787;28;20183;-72
2023/09/10 12:11:52;;;;;;;25.20;4.70;;;35.30;98.80;;;;;;5067930;28;20221;-74
2023/09/10 12:14:18;;;;;;;19.92;4.28;;;35.50;97.90;;;;;;5068059;28;20186;-73
2023/09/10 12:16:45;;;;;;;20.95;4.10;;;35.60;99.80;;;;;;5067442;28;20222;-72
2023/09/10 12:19:11;;;;;;;26.92;4.55;;;35.80;99.70;;;;;;5069671;28;20335;-73
2023/09/10 12:21:39;;;;;;;27.95;5.25;;;35.70;97.80;;;;;;5092272;28;20246;-73
2023/09/10 12:24:05;;;;;;;23.95;4.68;;;35.30;96.60;;;;;;5090465;28;20269;-72
2023/09/10 12:26:31;;;;;;;21.05;4.65;;;35.40;98.20;;;;;;5086093;28;20336;-73
2023/09/10 12:28:57;;;;;;;24.88;5.03;;;35.20;97.50;;;;;;5064931;28;20190;-71
2023/09/10 12:31:22;;;;;;;23.25;4.90;;;35.30;96.70;;;;;;5088652;28;20186;-72
2023/09/10 12:33:48;;;;;;;24.80;4.43;;;35.30;96.60;;;;;;5068626;28;20500;-73
2023/09/10 12:36:14;;;;;;;26.23;5.00;;;35.20;96.30;;;;;;5070634;28;20194;-72
2023/09/10 12:38:40;;;;;;;25.10;4.25;;;35.20;96.90;;;;;;5069906;28;20170;-73